Johnston, Iowa
Current Conditions -  °F | °C
As of 1:55 AM on Wednesday 26 Nov 2014 (Local Time) from KIKV Reporting Station
Broken Clouds Broken Clouds  
Wind Chill: 23°   Ceiling: 4000
Heat Index: 30°   Visibility: 10mi
Dew Point: 19°   Wind: 7mph
Humidity: 64%   Direction: 160°SSE
Pressure: 29.96"   Gusts: NA
Location:  41.67°N, 93.7°W
Report Text: KIKV 260755Z AUTO 16006KT 10SM FEW021 SCT031 BKN040 M01/M07 A2996 RMK AO2
Loading
Personal Weather Stations






























Interactive Weather Map New forecast layout! Learn more

10-Day Weather Forecast

Advertisements
Track Severe Weather on mobile